Time;durP1;ratioP1;P1;durP2;ratioP2;P2;SDS_P1;SDS_P2;PMS_P1;PMS_P2;Temp;Humidity;BMP_temperature;BMP_pressure;BME280_temperature;BME280_humidity;BME280_pressure;Samples;Min_cycle;Max_cycle;Signal;HPM_P1;HPM_P2
2021/04/24 00:00:02;;;;;;;22.80;12.70;;;;;;;;;;751797;185;919235;-71
2021/04/24 00:02:28;;;;;;;24.23;12.60;;;;;;;;;;745312;184;1283707;-71
2021/04/24 00:04:54;;;;;;;19.35;11.95;;;;;;;;;;743629;183;919283;-71
2021/04/24 00:07:20;;;;;;;19.63;11.93;;;;;;;;;;755141;181;919487;-71
2021/04/24 00:09:46;;;;;;;15.83;10.87;;;;;;;;;;754294;183;919490;-71
2021/04/24 00:12:11;;;;;;;17.60;12.10;;;;;;;;;;748658;182;918963;-70
2021/04/24 00:14:37;;;;;;;28.87;13.03;;;;;;;;;;753057;182;919557;-72
2021/04/24 00:17:03;;;;;;;23.80;12.93;;;;;;;;;;755544;182;918611;-71
2021/04/24 00:19:29;;;;;;;19.90;12.60;;;;;;;;;;753503;182;920474;-72
2021/04/24 00:21:54;;;;;;;23.73;13.50;;;;;;;;;;751306;182;919734;-71
2021/04/24 00:24:20;;;;;;;20.80;12.50;;;;;;;;;;757900;181;918449;-71
2021/04/24 00:26:46;;;;;;;16.80;11.93;;;;;;;;;;732783;186;1099128;-70
2021/04/24 00:29:12;;;;;;;18.77;12.93;;;;;;;;;;745882;185;919161;-70
2021/04/24 00:31:38;;;;;;;21.53;12.37;;;;;;;;;;744451;186;919071;-71
2021/04/24 00:34:04;;;;;;;16.90;11.77;;;;;;;;;;749922;185;918127;-71
2021/04/24 00:36:31;;;;;;;25.70;13.40;;;;;;;;;;745003;185;920105;-72
2021/04/24 00:38:56;;;;;;;20.63;13.10;;;;;;;;;;747975;183;918493;-71
2021/04/24 00:41:22;;;;;;;21.73;13.67;;;;;;;;;;747818;186;919841;-71
2021/04/24 00:43:48;;;;;;;26.13;12.50;;;;;;;;;;750685;182;917278;-70
2021/04/24 00:46:14;;;;;;;24.90;13.60;;;;;;;;;;754918;181;918879;-71
2021/04/24 00:48:40;;;;;;;21.30;11.63;;;;;;;;;;757250;182;1006749;-71
2021/04/24 00:51:05;;;;;;;17.90;11.73;;;;;;;;;;759140;181;918665;-71
2021/04/24 00:53:31;;;;;;;21.33;12.07;;;;;;;;;;754149;182;1021358;-71
2021/04/24 00:55:57;;;;;;;22.27;13.10;;;;;;;;;;757781;182;919350;-71
2021/04/24 00:58:23;;;;;;;21.27;13.97;;;;;;;;;;751341;182;919034;-72
2021/04/24 01:00:49;;;;;;;24.17;12.93;;;;;;;;;;757463;182;919169;-71
2021/04/24 01:03:15;;;;;;;24.50;14.23;;;;;;;;;;750942;182;965349;-71
2021/04/24 01:05:40;;;;;;;25.70;14.23;;;;;;;;;;744839;185;1022999;-72
2021/04/24 01:08:08;;;;;;;19.13;11.60;;;;;;;;;;741969;185;918865;-72
2021/04/24 01:10:32;;;;;;;30.43;13.97;;;;;;;;;;748805;186;919241;-71
2021/04/24 01:12:58;;;;;;;30.50;15.67;;;;;;;;;;758854;181;917738;-71
2021/04/24 01:15:24;;;;;;;21.30;13.13;;;;;;;;;;752847;183;918729;-71
2021/04/24 01:17:50;;;;;;;27.63;14.80;;;;;;;;;;744315;186;916351;-71
2021/04/24 01:20:16;;;;;;;26.37;13.13;;;;;;;;;;742747;186;915557;-71
2021/04/24 01:22:41;;;;;;;30.23;14.60;;;;;;;;;;742305;185;916694;-71
2021/04/24 01:25:08;;;;;;;26.33;14.80;;;;;;;;;;743654;184;916182;-71
2021/04/24 01:27:34;;;;;;;25.23;15.60;;;;;;;;;;758004;182;920223;-69
2021/04/24 01:30:00;;;;;;;29.33;15.38;;;;;;;;;;736610;189;931497;-72
2021/04/24 01:32:26;;;;;;;33.20;14.07;;;;;;;;;;745741;185;919028;-72
2021/04/24 01:34:51;;;;;;;29.05;16.35;;;;;;;;;;743385;185;922166;-71
2021/04/24 01:37:17;;;;;;;31.77;16.57;;;;;;;;;;748151;186;918982;-71
2021/04/24 01:39:43;;;;;;;37.17;18.00;;;;;;;;;;750918;182;919488;-72
2021/04/24 01:42:09;;;;;;;29.40;16.33;;;;;;;;;;747055;184;907677;-71
2021/04/24 01:44:35;;;;;;;26.70;16.40;;;;;;;;;;761056;182;918799;-70
2021/04/24 01:47:01;;;;;;;32.67;16.93;;;;;;;;;;757459;182;1021019;-71
2021/04/24 01:49:27;;;;;;;31.77;17.05;;;;;;;;;;754184;181;1590520;-71
2021/04/24 01:51:52;;;;;;;33.80;16.00;;;;;;;;;;757535;182;918189;-70
2021/04/24 01:54:18;;;;;;;27.97;16.57;;;;;;;;;;752726;182;919985;-71
2021/04/24 01:56:44;;;;;;;31.75;15.10;;;;;;;;;;751133;181;918867;-71
2021/04/24 01:59:10;;;;;;;31.27;15.33;;;;;;;;;;755163;182;920674;-69
2021/04/24 02:01:36;;;;;;;27.97;17.53;;;;;;;;;;758259;181;916641;-72
2021/04/24 02:04:02;;;;;;;28.87;18.23;;;;;;;;;;755761;182;918926;-74
2021/04/24 02:06:27;;;;;;;28.98;18.75;;;;;;;;;;752345;181;919038;-73
2021/04/24 02:08:53;;;;;;;40.30;18.20;;;;;;;;;;762201;182;919787;-72
2021/04/24 02:11:19;;;;;;;40.13;21.40;;;;;;;;;;752099;182;917867;-73
2021/04/24 02:13:45;;;;;;;38.23;19.37;;;;;;;;;;760348;182;916581;-73
2021/04/24 02:16:11;;;;;;;42.27;21.83;;;;;;;;;;760408;182;919445;-73
2021/04/24 02:18:37;;;;;;;34.30;19.10;;;;;;;;;;752769;180;918583;-74
2021/04/24 02:21:03;;;;;;;35.30;19.50;;;;;;;;;;752647;182;908119;-72
2021/04/24 02:23:37;;;;;;;33.35;19.52;;;;;;;;;;752078;181;919645;-72
2021/04/24 02:26:02;;;;;;;38.17;18.67;;;;;;;;;;745284;185;919224;-72
2021/04/24 02:28:28;;;;;;;27.13;15.50;;;;;;;;;;747774;185;918818;-72
2021/04/24 02:30:54;;;;;;;35.03;18.20;;;;;;;;;;742015;186;918675;-73
2021/04/24 02:33:20;;;;;;;26.33;17.50;;;;;;;;;;741637;188;919189;-73
2021/04/24 02:35:49;;;;;;;31.20;18.57;;;;;;;;;;741653;186;919599;-72
2021/04/24 02:38:15;;;;;;;33.50;17.30;;;;;;;;;;726887;188;953657;-72
2021/04/24 02:40:41;;;;;;;21.90;17.43;;;;;;;;;;727617;188;915035;-73
2021/04/24 02:43:07;;;;;;;27.33;16.67;;;;;;;;;;761465;181;939335;-73
2021/04/24 02:45:33;;;;;;;26.40;15.30;;;;;;;;;;761667;182;914212;-72
2021/04/24 02:47:59;;;;;;;27.53;14.80;;;;;;;;;;738740;185;910186;-73
2021/04/24 02:50:24;;;;;;;32.27;16.97;;;;;;;;;;749787;186;930230;-73
2021/04/24 02:52:50;;;;;;;26.33;15.50;;;;;;;;;;741582;186;919493;-71
2021/04/24 02:55:16;;;;;;;24.48;15.98;;;;;;;;;;751746;181;912026;-71
2021/04/24 02:57:42;;;;;;;32.30;15.17;;;;;;;;;;756991;181;1450602;-74
2021/04/24 03:00:08;;;;;;;27.90;13.43;;;;;;;;;;757356;182;919135;-72
2021/04/24 03:02:34;;;;;;;23.05;13.30;;;;;;;;;;753314;182;913164;-72
2021/04/24 03:05:00;;;;;;;23.00;14.30;;;;;;;;;;757579;181;917076;-71
2021/04/24 03:07:26;;;;;;;29.33;15.80;;;;;;;;;;754517;181;916319;-70
2021/04/24 03:09:52;;;;;;;24.60;13.47;;;;;;;;;;754870;181;909708;-71
2021/04/24 03:12:18;;;;;;;27.93;14.80;;;;;;;;;;754587;181;1014384;-71
2021/04/24 03:14:43;;;;;;;29.00;14.17;;;;;;;;;;756725;182;914789;-72
2021/04/24 03:17:09;;;;;;;26.80;15.67;;;;;;;;;;758876;182;916597;-71
2021/04/24 03:19:35;;;;;;;29.67;15.70;;;;;;;;;;742651;185;918822;-72
2021/04/24 03:22:01;;;;;;;22.90;13.87;;;;;;;;;;752907;182;918938;-71
2021/04/24 03:24:27;;;;;;;35.03;18.40;;;;;;;;;;752914;181;919250;-71
2021/04/24 03:26:53;;;;;;;27.87;17.00;;;;;;;;;;739921;185;1018015;-71
2021/04/24 03:29:18;;;;;;;34.80;17.00;;;;;;;;;;742940;185;914917;-69
2021/04/24 03:31:44;;;;;;;33.93;16.40;;;;;;;;;;751600;185;915529;-70
2021/04/24 03:34:10;;;;;;;29.20;16.07;;;;;;;;;;738929;185;1017742;-71
2021/04/24 03:36:36;;;;;;;29.13;15.80;;;;;;;;;;739258;186;941684;-71
2021/04/24 03:39:02;;;;;;;32.23;18.30;;;;;;;;;;763408;182;915633;-71
2021/04/24 03:41:28;;;;;;;30.40;17.10;;;;;;;;;;755422;182;939484;-69
2021/04/24 03:43:53;;;;;;;33.40;17.53;;;;;;;;;;754763;180;1018527;-71
2021/04/24 03:46:19;;;;;;;36.80;16.77;;;;;;;;;;755877;182;916532;-71
2021/04/24 03:48:45;;;;;;;27.87;16.30;;;;;;;;;;744417;185;915998;-70
2021/04/24 03:51:11;;;;;;;24.70;15.13;;;;;;;;;;742574;186;915828;-71
2021/04/24 03:53:37;;;;;;;30.10;16.27;;;;;;;;;;764865;182;913916;-71
2021/04/24 03:56:03;;;;;;;23.43;14.53;;;;;;;;;;751146;181;914300;-70
2021/04/24 03:58:29;;;;;;;27.30;14.30;;;;;;;;;;753678;182;915451;-71
2021/04/24 04:00:54;;;;;;;27.93;16.07;;;;;;;;;;750785;182;1127427;-70
2021/04/24 04:03:20;;;;;;;27.57;16.37;;;;;;;;;;758430;183;915712;-70
2021/04/24 04:05:47;;;;;;;29.20;14.20;;;;;;;;;;741963;185;1361514;-73
2021/04/24 04:08:12;;;;;;;23.67;14.43;;;;;;;;;;744517;186;631181;-71
2021/04/24 04:10:38;;;;;;;26.70;15.33;;;;;;;;;;749262;185;626790;-71
2021/04/24 04:13:04;;;;;;;25.63;15.47;;;;;;;;;;745462;185;915549;-71
2021/04/24 04:15:29;;;;;;;22.87;14.50;;;;;;;;;;740721;185;916144;-73
2021/04/24 04:17:57;;;;;;;27.33;15.17;;;;;;;;;;746399;185;920644;-73
2021/04/24 04:20:23;;;;;;;23.30;13.40;;;;;;;;;;743350;185;915131;-73
2021/04/24 04:22:49;;;;;;;24.47;14.13;;;;;;;;;;742594;186;920846;-73
2021/04/24 04:25:15;;;;;;;24.07;14.67;;;;;;;;;;749538;181;920366;-75
2021/04/24 04:27:41;;;;;;;33.60;16.73;;;;;;;;;;747345;184;916695;-73
2021/04/24 04:30:08;;;;;;;31.53;16.60;;;;;;;;;;744957;183;918460;-73
2021/04/24 04:32:34;;;;;;;36.03;16.10;;;;;;;;;;752370;181;862656;-73
2021/04/24 04:35:00;;;;;;;35.47;19.70;;;;;;;;;;763196;182;918815;-73
2021/04/24 04:37:25;;;;;;;52.03;22.27;;;;;;;;;;755854;180;914722;-71
2021/04/24 04:39:51;;;;;;;38.47;21.20;;;;;;;;;;753716;182;1022809;-71
2021/04/24 04:42:17;;;;;;;53.27;22.60;;;;;;;;;;759523;182;915589;-71
2021/04/24 04:44:43;;;;;;;49.07;24.97;;;;;;;;;;759841;182;921567;-71
2021/04/24 04:47:09;;;;;;;45.30;23.27;;;;;;;;;;756549;182;889651;-71
2021/04/24 04:49:35;;;;;;;55.97;24.55;;;;;;;;;;759195;182;865387;-71
2021/04/24 04:52:01;;;;;;;72.50;26.70;;;;;;;;;;760718;181;848380;-71
2021/04/24 04:54:26;;;;;;;59.40;26.52;;;;;;;;;;745175;184;920522;-71
2021/04/24 04:56:52;;;;;;;62.27;28.77;;;;;;;;;;744860;184;921508;-70
2021/04/24 04:59:18;;;;;;;56.67;30.33;;;;;;;;;;749711;186;914788;-69
2021/04/24 05:01:45;;;;;;;46.50;25.47;;;;;;;;;;730558;188;919353;-70
2021/04/24 05:04:11;;;;;;;52.40;26.60;;;;;;;;;;738277;187;924659;-68
2021/04/24 05:06:38;;;;;;;53.30;24.07;;;;;;;;;;749174;186;919230;-70
2021/04/24 05:09:04;;;;;;;54.97;23.90;;;;;;;;;;750844;182;918992;-69
2021/04/24 05:11:30;;;;;;;47.23;23.10;;;;;;;;;;756454;182;961421;-69
2021/04/24 05:13:56;;;;;;;55.00;27.03;;;;;;;;;;744595;181;1881093;-69
2021/04/24 05:16:22;;;;;;;46.85;22.83;;;;;;;;;;755921;181;916965;-70
2021/04/24 05:18:48;;;;;;;42.97;21.93;;;;;;;;;;743724;185;923050;-70
2021/04/24 05:21:14;;;;;;;34.50;17.33;;;;;;;;;;741358;186;919280;-69
2021/04/24 05:23:39;;;;;;;33.20;18.33;;;;;;;;;;744071;185;919786;-68
2021/04/24 05:26:05;;;;;;;33.93;17.17;;;;;;;;;;745219;185;918871;-67
2021/04/24 05:28:31;;;;;;;38.93;18.80;;;;;;;;;;740896;185;917772;-65
2021/04/24 05:30:58;;;;;;;27.90;15.87;;;;;;;;;;747777;185;919415;-67
2021/04/24 05:33:23;;;;;;;25.47;15.97;;;;;;;;;;733995;186;2498124;-66
2021/04/24 05:35:49;;;;;;;25.23;14.60;;;;;;;;;;743940;185;919020;-65
2021/04/24 05:38:15;;;;;;;29.57;15.70;;;;;;;;;;751595;182;1021995;-66
2021/04/24 05:40:41;;;;;;;31.83;15.67;;;;;;;;;;748199;184;919275;-67
2021/04/24 05:43:07;;;;;;;24.13;13.30;;;;;;;;;;747839;185;917341;-66
2021/04/24 05:45:32;;;;;;;21.30;13.17;;;;;;;;;;745893;185;918115;-66
2021/04/24 05:47:58;;;;;;;24.37;13.05;;;;;;;;;;751286;185;918727;-67
2021/04/24 05:50:24;;;;;;;17.57;11.87;;;;;;;;;;741899;185;919103;-66
2021/04/24 05:52:50;;;;;;;28.07;15.13;;;;;;;;;;742940;185;920667;-67
2021/04/24 05:55:16;;;;;;;20.97;12.53;;;;;;;;;;745900;185;926531;-67
2021/04/24 05:57:42;;;;;;;25.57;9.90;;;;;;;;;;747179;186;673995;-67
2021/04/24 06:00:08;;;;;;;25.23;12.13;;;;;;;;;;744320;185;919557;-67
2021/04/24 06:02:34;;;;;;;19.83;12.20;;;;;;;;;;761599;182;919368;-67
2021/04/24 06:05:00;;;;;;;30.17;14.00;;;;;;;;;;757690;182;941396;-66
2021/04/24 06:07:26;;;;;;;17.90;11.73;;;;;;;;;;760669;182;918547;-65
2021/04/24 06:09:52;;;;;;;23.23;11.77;;;;;;;;;;756393;181;919286;-66
2021/04/24 06:12:17;;;;;;;18.93;12.00;;;;;;;;;;761042;182;919681;-67
2021/04/24 06:14:43;;;;;;;15.23;10.43;;;;;;;;;;748767;181;916848;-66
2021/04/24 06:17:09;;;;;;;13.67;8.40;;;;;;;;;;745743;181;916004;-65
2021/04/24 06:19:35;;;;;;;18.03;10.33;;;;;;;;;;757778;182;1017215;-64
2021/04/24 06:22:01;;;;;;;22.13;11.93;;;;;;;;;;743675;182;2237232;-65
2021/04/24 06:24:27;;;;;;;17.77;10.70;;;;;;;;;;758088;182;916679;-65
2021/04/24 06:26:52;;;;;;;25.80;11.60;;;;;;;;;;758714;182;915761;-65
2021/04/24 06:29:18;;;;;;;19.60;9.73;;;;;;;;;;755771;182;948486;-66
2021/04/24 06:31:44;;;;;;;24.93;12.97;;;;;;;;;;752915;183;932016;-65
2021/04/24 06:34:10;;;;;;;25.63;11.07;;;;;;;;;;755506;182;1023566;-64
2021/04/24 06:36:36;;;;;;;18.60;10.20;;;;;;;;;;751589;181;920519;-64
2021/04/24 06:39:05;;;;;;;21.77;10.03;;;;;;;;;;749175;185;920160;-66
2021/04/24 06:41:28;;;;;;;12.05;8.48;;;;;;;;;;740376;185;1021471;-65
2021/04/24 06:43:54;;;;;;;18.30;10.40;;;;;;;;;;750799;185;919794;-64
2021/04/24 06:46:19;;;;;;;17.77;9.67;;;;;;;;;;743777;185;918862;-65
2021/04/24 06:48:45;;;;;;;17.57;10.30;;;;;;;;;;744289;185;919492;-64
2021/04/24 06:51:11;;;;;;;17.33;8.80;;;;;;;;;;738628;190;911926;-65
2021/04/24 06:53:37;;;;;;;14.27;9.27;;;;;;;;;;748242;186;920235;-65
2021/04/24 06:56:04;;;;;;;16.93;9.90;;;;;;;;;;731490;188;919644;-65
2021/04/24 06:58:31;;;;;;;17.60;10.63;;;;;;;;;;754857;181;1124970;-64
2021/04/24 07:00:56;;;;;;;16.60;10.37;;;;;;;;;;756867;184;920846;-65
2021/04/24 07:03:22;;;;;;;16.30;10.07;;;;;;;;;;746679;182;918055;-67
2021/04/24 07:05:48;;;;;;;21.20;10.13;;;;;;;;;;743142;186;920257;-65
2021/04/24 07:08:14;;;;;;;14.77;9.97;;;;;;;;;;744208;185;919790;-66
2021/04/24 07:10:40;;;;;;;20.27;9.67;;;;;;;;;;743241;186;921062;-66
2021/04/24 07:13:06;;;;;;;14.70;8.90;;;;;;;;;;740634;185;918605;-66
2021/04/24 07:15:31;;;;;;;14.63;9.13;;;;;;;;;;745298;186;914600;-65
2021/04/24 07:17:57;;;;;;;27.93;10.13;;;;;;;;;;744830;184;919116;-65
2021/04/24 07:20:23;;;;;;;18.50;9.80;;;;;;;;;;751531;182;1023393;-65
2021/04/24 07:22:49;;;;;;;21.23;10.03;;;;;;;;;;756788;182;919200;-66
2021/04/24 07:25:15;;;;;;;16.80;9.07;;;;;;;;;;753061;182;1021871;-66
2021/04/24 07:27:41;;;;;;;19.20;9.48;;;;;;;;;;745809;182;2257028;-65
2021/04/24 07:30:07;;;;;;;14.27;8.40;;;;;;;;;;762164;182;918755;-66
2021/04/24 07:32:33;;;;;;;17.60;9.13;;;;;;;;;;754387;182;921124;-69
2021/04/24 07:35:00;;;;;;;22.27;8.00;;;;;;;;;;749470;184;902292;-66
2021/04/24 07:37:25;;;;;;;17.27;8.50;;;;;;;;;;741945;186;921326;-66
2021/04/24 07:39:51;;;;;;;17.60;10.23;;;;;;;;;;747566;186;913613;-68
2021/04/24 07:42:18;;;;;;;21.43;8.80;;;;;;;;;;743621;186;919311;-65
2021/04/24 07:44:43;;;;;;;17.80;9.97;;;;;;;;;;744125;182;917793;-65
2021/04/24 07:47:08;;;;;;;21.27;9.83;;;;;;;;;;760761;182;918876;-66
2021/04/24 07:49:36;;;;;;;15.30;10.90;;;;;;;;;;755100;182;916187;-66
2021/04/24 07:52:02;;;;;;;15.93;9.03;;;;;;;;;;754715;182;919390;-65
2021/04/24 07:54:28;;;;;;;18.37;9.80;;;;;;;;;;751935;181;919101;-66
2021/04/24 07:56:55;;;;;;;14.93;10.60;;;;;;;;;;751778;182;918686;-66
2021/04/24 07:59:19;;;;;;;15.77;9.03;;;;;;;;;;743286;186;918755;-66
2021/04/24 08:01:45;;;;;;;17.83;9.87;;;;;;;;;;756244;182;919661;-66
2021/04/24 08:04:11;;;;;;;21.30;11.33;;;;;;;;;;756580;182;918451;-71
2021/04/24 08:06:37;;;;;;;19.73;10.90;;;;;;;;;;752015;182;918701;-66
2021/04/24 08:09:03;;;;;;;20.27;10.00;;;;;;;;;;751822;182;919463;-67
2021/04/24 08:11:29;;;;;;;25.10;11.70;;;;;;;;;;763577;181;918979;-66
2021/04/24 08:13:55;;;;;;;18.07;9.83;;;;;;;;;;763091;180;919311;-66
2021/04/24 08:16:21;;;;;;;25.13;11.23;;;;;;;;;;753587;182;919962;-65
2021/04/24 08:18:47;;;;;;;25.40;12.00;;;;;;;;;;753101;180;918987;-65
2021/04/24 08:21:13;;;;;;;19.70;11.90;;;;;;;;;;747364;183;934033;-66
2021/04/24 08:23:38;;;;;;;25.90;12.07;;;;;;;;;;748445;182;985119;-66
2021/04/24 08:26:04;;;;;;;20.83;10.87;;;;;;;;;;741994;185;919500;-65
2021/04/24 08:28:30;;;;;;;24.70;13.40;;;;;;;;;;749742;185;919255;-65
2021/04/24 08:30:56;;;;;;;22.93;12.80;;;;;;;;;;739591;186;919537;-66
2021/04/24 08:33:22;;;;;;;16.80;10.50;;;;;;;;;;744374;186;919606;-67
2021/04/24 08:35:48;;;;;;;19.77;12.27;;;;;;;;;;736780;188;1121694;-65
2021/04/24 08:38:14;;;;;;;24.23;12.57;;;;;;;;;;743307;185;919301;-66
2021/04/24 08:40:39;;;;;;;14.70;9.77;;;;;;;;;;746327;185;918974;-67
2021/04/24 08:43:05;;;;;;;23.93;11.00;;;;;;;;;;750768;185;920056;-66
2021/04/24 08:45:31;;;;;;;17.63;11.67;;;;;;;;;;742060;185;887004;-66
2021/04/24 08:47:57;;;;;;;21.57;12.80;;;;;;;;;;747131;185;926727;-66
2021/04/24 08:50:23;;;;;;;20.07;10.40;;;;;;;;;;744440;186;999356;-65
2021/04/24 08:52:49;;;;;;;21.50;11.13;;;;;;;;;;756331;182;914750;-67
2021/04/24 08:55:14;;;;;;;18.10;11.00;;;;;;;;;;741805;186;921378;-66
2021/04/24 08:57:40;;;;;;;20.33;11.45;;;;;;;;;;741784;185;2250408;-67
2021/04/24 09:00:07;;;;;;;16.20;12.53;;;;;;;;;;747538;186;919513;-66
2021/04/24 09:02:33;;;;;;;15.57;9.70;;;;;;;;;;746049;182;998249;-67
2021/04/24 09:04:59;;;;;;;18.55;13.60;;;;;;;;;;746677;185;918100;-66
2021/04/24 09:07:25;;;;;;;28.80;11.90;;;;;;;;;;756511;181;928415;-66
2021/04/24 09:09:56;;;;;;;19.20;10.10;;;;;;;;;;759234;182;815761;-67
2021/04/24 09:12:39;;;;;;;18.23;10.10;;;;;;;;;;752522;182;905319;-68
2021/04/24 09:15:07;;;;;;;18.63;11.10;;;;;;;;;;755918;182;919238;-66
2021/04/24 09:17:39;;;;;;;27.33;10.13;;;;;;;;;;754419;182;919564;-66
2021/04/24 09:20:06;;;;;;;27.05;11.57;;;;;;;;;;750888;184;929057;-65
2021/04/24 09:22:32;;;;;;;22.30;12.53;;;;;;;;;;753882;181;920144;-66
2021/04/24 09:24:58;;;;;;;15.53;9.13;;;;;;;;;;755305;182;918524;-66
2021/04/24 09:27:30;;;;;;;14.43;8.93;;;;;;;;;;755898;182;888788;-66
2021/04/24 09:30:02;;;;;;;16.10;9.50;;;;;;;;;;762350;182;919125;-66
2021/04/24 09:32:27;;;;;;;16.43;8.23;;;;;;;;;;749405;184;1021323;-67
2021/04/24 09:34:54;;;;;;;15.27;8.47;;;;;;;;;;747097;182;920945;-65
2021/04/24 09:37:19;;;;;;;13.70;7.50;;;;;;;;;;756999;182;1021325;-67
2021/04/24 09:39:45;;;;;;;10.07;5.37;;;;;;;;;;760859;182;917484;-66
2021/04/24 09:42:26;;;;;;;13.93;6.33;;;;;;;;;;754920;182;919730;-66
2021/04/24 09:44:52;;;;;;;12.53;5.03;;;;;;;;;;745865;182;2114160;-68
2021/04/24 09:47:17;;;;;;;10.87;5.40;;;;;;;;;;752167;182;624429;-67
2021/04/24 09:49:43;;;;;;;16.23;7.63;;;;;;;;;;752664;186;614505;-68
2021/04/24 09:52:11;;;;;;;16.90;7.33;;;;;;;;;;757611;182;614996;-67
2021/04/24 09:54:35;;;;;;;11.73;6.60;;;;;;;;;;753984;181;906796;-68
2021/04/24 09:57:01;;;;;;;9.27;5.83;;;;;;;;;;761482;182;918802;-67
2021/04/24 09:59:27;;;;;;;12.93;6.93;;;;;;;;;;752134;182;925506;-67
2021/04/24 10:01:55;;;;;;;9.97;5.40;;;;;;;;;;756329;182;918414;-68
2021/04/24 10:04:21;;;;;;;11.03;5.47;;;;;;;;;;750419;181;920461;-67
2021/04/24 10:06:47;;;;;;;12.13;4.33;;;;;;;;;;763875;182;909454;-68
2021/04/24 10:09:19;;;;;;;18.53;6.00;;;;;;;;;;745478;182;918975;-68
2021/04/24 10:11:49;;;;;;;13.47;5.97;;;;;;;;;;742617;186;919018;-67
2021/04/24 10:14:15;;;;;;;15.13;6.07;;;;;;;;;;736591;185;916150;-68
2021/04/24 10:16:43;;;;;;;8.70;4.60;;;;;;;;;;746056;186;917514;-68
2021/04/24 10:19:08;;;;;;;19.98;8.48;;;;;;;;;;747101;181;915898;-68
2021/04/24 10:21:34;;;;;;;13.53;5.27;;;;;;;;;;757910;182;917123;-69
2021/04/24 10:24:00;;;;;;;9.85;5.68;;;;;;;;;;754152;182;919004;-68
2021/04/24 10:26:25;;;;;;;8.00;4.93;;;;;;;;;;745643;182;1260030;-69
2021/04/24 10:28:51;;;;;;;10.70;5.70;;;;;;;;;;739665;186;919499;-68
2021/04/24 10:31:17;;;;;;;12.77;5.47;;;;;;;;;;755951;181;918316;-68
2021/04/24 10:33:43;;;;;;;9.23;4.33;;;;;;;;;;752613;182;918276;-66
2021/04/24 10:36:09;;;;;;;7.82;4.60;;;;;;;;;;751814;182;917203;-66
2021/04/24 10:38:34;;;;;;;13.73;5.40;;;;;;;;;;758188;182;919333;-66
2021/04/24 10:41:00;;;;;;;9.25;4.50;;;;;;;;;;750198;183;919304;-65
2021/04/24 10:43:26;;;;;;;14.20;4.60;;;;;;;;;;744158;185;1002688;-66
2021/04/24 10:45:52;;;;;;;12.60;6.07;;;;;;;;;;759960;182;626988;-67
2021/04/24 10:48:21;;;;;;;11.50;5.40;;;;;;;;;;763686;182;622272;-66
2021/04/24 10:50:47;;;;;;;9.27;5.07;;;;;;;;;;748855;182;1692222;-65
2021/04/24 10:53:19;;;;;;;10.10;5.80;;;;;;;;;;757098;182;918982;-66
2021/04/24 10:55:44;;;;;;;10.20;5.30;;;;;;;;;;753028;182;918921;-66
2021/04/24 10:58:13;;;;;;;11.75;5.45;;;;;;;;;;758494;183;918674;-65
2021/04/24 11:00:54;;;;;;;13.77;6.53;;;;;;;;;;737625;186;918568;-67
2021/04/24 11:03:26;;;;;;;7.07;4.70;;;;;;;;;;753691;181;919376;-66
2021/04/24 11:05:52;;;;;;;9.90;5.00;;;;;;;;;;753782;182;919828;-70
2021/04/24 11:08:22;;;;;;;13.20;5.65;;;;;;;;;;761371;182;919008;-66
2021/04/24 11:10:56;;;;;;;7.77;5.03;;;;;;;;;;753777;183;1036245;-67
2021/04/24 11:13:22;;;;;;;9.20;4.80;;;;;;;;;;753030;182;941413;-67
2021/04/24 11:15:48;;;;;;;9.23;5.23;;;;;;;;;;752921;182;918979;-68
2021/04/24 11:18:14;;;;;;;10.25;5.25;;;;;;;;;;752901;182;919066;-66
2021/04/24 11:20:46;;;;;;;9.53;6.00;;;;;;;;;;753808;182;917711;-69
2021/04/24 11:23:17;;;;;;;10.33;6.13;;;;;;;;;;741943;185;919830;-67
2021/04/24 11:25:43;;;;;;;9.80;5.60;;;;;;;;;;738755;186;1017617;-67
2021/04/24 11:28:10;;;;;;;12.77;7.00;;;;;;;;;;739313;186;919632;-65
2021/04/24 11:30:40;;;;;;;12.63;6.60;;;;;;;;;;724714;186;920119;-68
2021/04/24 11:33:12;;;;;;;11.43;6.17;;;;;;;;;;726642;190;918802;-66
2021/04/24 11:35:38;;;;;;;14.00;6.93;;;;;;;;;;742113;186;918976;-67
2021/04/24 11:38:04;;;;;;;13.10;7.37;;;;;;;;;;743409;185;918779;-67
2021/04/24 11:40:31;;;;;;;15.50;6.10;;;;;;;;;;750142;182;918775;-66
2021/04/24 11:43:05;;;;;;;8.53;6.27;;;;;;;;;;742219;185;918447;-67
2021/04/24 11:45:37;;;;;;;16.57;7.37;;;;;;;;;;761123;181;919136;-67
2021/04/24 11:48:03;;;;;;;13.53;6.90;;;;;;;;;;752418;182;1155233;-68
2021/04/24 11:50:29;;;;;;;17.27;7.95;;;;;;;;;;762714;182;919103;-68
2021/04/24 11:52:55;;;;;;;12.40;6.73;;;;;;;;;;758334;182;618195;-67
2021/04/24 11:55:21;;;;;;;16.73;8.80;;;;;;;;;;760770;181;619807;-68
2021/04/24 11:57:47;;;;;;;20.70;7.70;;;;;;;;;;758439;181;631995;-68
2021/04/24 12:00:14;;;;;;;12.47;8.43;;;;;;;;;;748303;186;918797;-68
2021/04/24 12:02:39;;;;;;;15.70;8.18;;;;;;;;;;761301;182;918526;-68
2021/04/24 12:05:09;;;;;;;14.97;8.33;;;;;;;;;;751036;184;914597;-68
2021/04/24 12:07:31;;;;;;;17.40;8.00;;;;;;;;;;742855;186;919130;-67
2021/04/24 12:10:00;;;;;;;15.77;8.33;;;;;;;;;;722022;188;916545;-68
2021/04/24 12:12:29;;;;;;;12.90;7.70;;;;;;;;;;757593;182;919277;-67
2021/04/24 12:15:00;;;;;;;15.73;8.70;;;;;;;;;;758710;181;918575;-68
2021/04/24 12:17:26;;;;;;;15.70;8.80;;;;;;;;;;754985;184;922643;-68
2021/04/24 12:19:52;;;;;;;13.17;8.43;;;;;;;;;;745139;182;1195250;-68
2021/04/24 12:22:19;;;;;;;19.73;9.67;;;;;;;;;;742127;186;915162;-68
2021/04/24 12:24:49;;;;;;;12.67;7.90;;;;;;;;;;749492;185;911729;-68
2021/04/24 12:27:21;;;;;;;12.13;8.73;;;;;;;;;;743372;186;916409;-67
2021/04/24 12:29:48;;;;;;;13.90;9.17;;;;;;;;;;716396;193;993167;-68
2021/04/24 12:32:12;;;;;;;18.47;8.97;;;;;;;;;;717655;192;919295;-70
2021/04/24 12:34:38;;;;;;;13.40;9.50;;;;;;;;;;745500;185;919551;-68
2021/04/24 12:37:04;;;;;;;20.53;8.90;;;;;;;;;;740917;186;918417;-68
2021/04/24 12:39:30;;;;;;;13.03;7.83;;;;;;;;;;736081;186;2098347;-69
2021/04/24 12:41:56;;;;;;;16.77;7.60;;;;;;;;;;760459;182;1023643;-68
2021/04/24 12:44:25;;;;;;;12.00;8.40;;;;;;;;;;758713;182;918725;-68
2021/04/24 12:46:50;;;;;;;11.27;7.03;;;;;;;;;;749653;182;917378;-68
2021/04/24 12:49:16;;;;;;;15.83;9.87;;;;;;;;;;750153;186;919371;-68
2021/04/24 12:51:42;;;;;;;14.77;9.80;;;;;;;;;;749849;182;910519;-68
2021/04/24 12:54:08;;;;;;;13.90;7.87;;;;;;;;;;758269;182;616964;-69
2021/04/24 12:56:34;;;;;;;15.77;8.07;;;;;;;;;;752990;181;886248;-67
2021/04/24 12:59:01;;;;;;;17.03;8.90;;;;;;;;;;760910;182;938050;-69
2021/04/24 13:01:27;;;;;;;17.50;9.60;;;;;;;;;;724613;182;5352687;-68
2021/04/24 13:03:55;;;;;;;8.80;7.70;;;;;;;;;;751352;182;631155;-68
2021/04/24 13:06:24;;;;;;;24.07;8.90;;;;;;;;;;756982;183;1386832;-68
2021/04/24 13:08:55;;;;;;;11.23;7.45;;;;;;;;;;755305;182;915614;-68
2021/04/24 13:11:21;;;;;;;14.03;8.40;;;;;;;;;;754119;182;988677;-69
2021/04/24 13:13:47;;;;;;;12.68;9.23;;;;;;;;;;757274;182;915622;-68
2021/04/24 13:16:13;;;;;;;12.97;8.17;;;;;;;;;;759479;182;823906;-72
2021/04/24 13:18:43;;;;;;;16.63;9.17;;;;;;;;;;753360;182;918488;-68
2021/04/24 13:21:15;;;;;;;17.57;8.23;;;;;;;;;;756320;182;919299;-68
2021/04/24 13:23:40;;;;;;;15.70;8.67;;;;;;;;;;752795;182;1021063;-68
2021/04/24 13:26:06;;;;;;;10.60;7.67;;;;;;;;;;760947;182;919299;-68
2021/04/24 13:28:32;;;;;;;18.37;8.57;;;;;;;;;;751744;182;918775;-68
2021/04/24 13:30:59;;;;;;;10.00;7.43;;;;;;;;;;749236;185;919119;-69
2021/04/24 13:33:30;;;;;;;13.70;7.60;;;;;;;;;;748976;183;919786;-68
2021/04/24 13:35:56;;;;;;;12.10;7.33;;;;;;;;;;751666;182;919176;-68
2021/04/24 13:38:21;;;;;;;14.70;7.93;;;;;;;;;;749772;182;920342;-68
2021/04/24 13:40:47;;;;;;;16.30;8.02;;;;;;;;;;754596;182;1021756;-68
2021/04/24 13:43:19;;;;;;;11.97;8.57;;;;;;;;;;757727;182;918176;-68
2021/04/24 13:45:45;;;;;;;14.67;7.90;;;;;;;;;;755893;181;938491;-67
2021/04/24 13:48:11;;;;;;;13.63;8.33;;;;;;;;;;738307;186;919325;-68
2021/04/24 13:50:37;;;;;;;22.70;10.88;;;;;;;;;;755640;184;920899;-67
2021/04/24 13:53:08;;;;;;;17.53;7.63;;;;;;;;;;749553;183;919788;-68
2021/04/24 13:55:29;;;;;;;11.10;7.87;;;;;;;;;;745053;182;918619;-68
2021/04/24 13:58:02;;;;;;;10.87;8.10;;;;;;;;;;751035;181;949449;-73
2021/04/24 14:00:27;;;;;;;14.03;7.57;;;;;;;;;;742169;186;919432;-68
2021/04/24 14:02:53;;;;;;;12.90;7.57;;;;;;;;;;735038;188;907959;-68